Carnival Valor — H3VR — position and weather

sailwx.info

Track history (hours):
 
Tides and Currents Weather Stations Pressure Air Temp Water Temp Dewpoint Dewpoint Depression Visibility Wind Speed Wind Dir Waves Ship Positions

Carnival Valor

Last reported at 2020-Jan-28 11:00 UTC. Time now 2020-Jan-28 20:58 UTC.
Position N 27°00' W 088°36'.

Type: Ship. MMSI: 354298000.

Wind from 090 at 18 knots

Barometer 1013.7 mb
Air temperature 21.0 ° C
Dewpoint 16.1 ° C
Water temperature 23.0 ° C

Date/timePositionNaut miles runAvg speedWind from/ knotsBaromVisibWave heightAir tempDewpointWater temp
2020-Jan-28 11:00N 27°00' W 088°36'18216.5 090 / 181013.7 21.016.123.0
2020-Jan-28 00:00N 29°45' W 090°01'11 5.7
2020-Jan-27 22:00N 29°56' W 090°04'0 0.0
2020-Jan-27 17:59N 29°56' W 090°04'0 0.0
2020-Jan-27 16:58N 29°56' W 090°04'0 0.0
2020-Jan-27 16:28N 29°56' W 090°04'0 0.0
2020-Jan-27 15:30N 29°56' W 090°04'0 0.0
2020-Jan-27 12:29N 29°56' W 090°04'0 0.0
2020-Jan-27 12:00N 29°56' W 090°04'2 3.3
2020-Jan-27 11:30N 29°57' W 090°02'59316.0
2020-Jan-25 22:30N 20°29' W 086°59'0 0.0
2020-Jan-25 18:28N 20°29' W 086°59'0 0.0
2020-Jan-25 17:58N 20°29' W 086°59'0 0.0
2020-Jan-25 17:30N 20°29' W 086°59'0 0.0
2020-Jan-25 16:00N 20°29' W 086°59'0 0.0
2020-Jan-25 14:59N 20°29' W 086°59'0 0.0
2020-Jan-25 13:30N 20°29' W 086°59'6 6.0
2020-Jan-25 12:30N 20°35' W 086°59'5 9.8
2020-Jan-25 12:00N 20°39' W 086°56'5 9.4
2020-Jan-25 11:30N 20°43' W 086°53'55715.7
2020-Jan-24 00:04N 29°36' W 089°51'912.0
2020-Jan-23 23:18N 29°42' W 089°59'1310.1
2020-Jan-23 22:00N 29°55' W 089°55'8 1.4
2020-Jan-23 16:26N 29°56' W 090°04'0 0.0
2020-Jan-23 15:26N 29°56' W 090°04'0 0.0
2020-Jan-23 13:52N 29°56' W 090°04'0 0.0
2020-Jan-23 12:30N 29°56' W 090°04'0 0.0
2020-Jan-23 11:00N 29°56' W 090°04'8 7.7
2020-Jan-23 10:00N 29°55' W 089°55'50414.8
2020-Jan-22 00:01N 21°31' W 089°41'10 2.8
2020-Jan-21 20:29N 21°21' W 089°41'22 3.0
2020-Jan-21 13:01N 21°41' W 089°31'15912.8
2020-Jan-21 00:38N 20°44' W 086°52'17 4.6
2020-Jan-20 20:59N 20°29' W 086°59'0 0.0
2020-Jan-20 18:28N 20°29' W 086°59'0 0.0
2020-Jan-20 17:00N 20°29' W 086°59'0 0.0
2020-Jan-20 14:59N 20°29' W 086°59'0 0.0
2020-Jan-20 13:30N 20°29' W 086°59'11 7.4
2020-Jan-20 12:00N 20°39' W 086°55'10 9.6
2020-Jan-20 11:00N 20°47' W 086°50'11512.7
2020-Jan-20 02:00N 22°42' W 086°54'2121.1 1019.0
2020-Jan-20 01:00N 23°00' W 087°06'3818.8 010 / 151018.7 25.022.026.0
2020-Jan-19 23:00N 23°36' W 087°18'18418.4 010 / 291018.2 26.019.926.0
2020-Jan-19 13:00N 26°30' W 088°24'20116.0 360 / 101019.910.8 22.015.329.0
2020-Jan-19 00:25N 29°36' W 089°50'22 8.9
2020-Jan-18 22:00N 29°56' W 089°59'4 6.9
2020-Jan-18 21:25N 29°56' W 090°04'0 0.0
2020-Jan-18 20:25N 29°56' W 090°04'0 0.0
2020-Jan-18 19:30N 29°56' W 090°04'0 0.0
2020-Jan-18 17:57N 29°56' W 090°04'0 0.0
2020-Jan-18 17:29N 29°56' W 090°04'0 0.0
2020-Jan-18 16:26N 29°56' W 090°04'0 0.0
2020-Jan-18 15:28N 29°56' W 090°04'0 0.0
2020-Jan-18 14:58N 29°56' W 090°04'0 0.0
2020-Jan-18 13:28N 29°56' W 090°04'  
Track history (hours):
 
Tides and Currents Weather Stations Pressure Air Temp Water Temp Dewpoint Dewpoint Depression Visibility Wind Speed Wind Dir Waves Ship Positions

Carnival Valor

Last reported at 2020-Jan-28 11:00 UTC. Time now 2020-Jan-28 20:58 UTC.
Position N 27°00' W 088°36'.

Type: Ship. MMSI: 354298000.

Wind from 090 at 18 knots

Barometer 1013.7 mb
Air temperature 21.0 ° C
Dewpoint 16.1 ° C
Water temperature 23.0 ° C

Date/timePositionNaut miles runAvg speedWind from/ knotsBaromVisibWave heightAir tempDewpointWater temp
2020-Jan-28 11:00N 27°00' W 088°36'18216.5 090 / 181013.7 21.016.123.0
2020-Jan-28 00:00N 29°45' W 090°01'11 5.7
2020-Jan-27 22:00N 29°56' W 090°04'0 0.0
2020-Jan-27 17:59N 29°56' W 090°04'0 0.0
2020-Jan-27 16:58N 29°56' W 090°04'0 0.0
2020-Jan-27 16:28N 29°56' W 090°04'0 0.0
2020-Jan-27 15:30N 29°56' W 090°04'0 0.0
2020-Jan-27 12:29N 29°56' W 090°04'0 0.0
2020-Jan-27 12:00N 29°56' W 090°04'2 3.3
2020-Jan-27 11:30N 29°57' W 090°02'59316.0
2020-Jan-25 22:30N 20°29' W 086°59'0 0.0
2020-Jan-25 18:28N 20°29' W 086°59'0 0.0
2020-Jan-25 17:58N 20°29' W 086°59'0 0.0
2020-Jan-25 17:30N 20°29' W 086°59'0 0.0
2020-Jan-25 16:00N 20°29' W 086°59'0 0.0
2020-Jan-25 14:59N 20°29' W 086°59'0 0.0
2020-Jan-25 13:30N 20°29' W 086°59'6 6.0
2020-Jan-25 12:30N 20°35' W 086°59'5 9.8
2020-Jan-25 12:00N 20°39' W 086°56'5 9.4
2020-Jan-25 11:30N 20°43' W 086°53'55715.7
2020-Jan-24 00:04N 29°36' W 089°51'912.0
2020-Jan-23 23:18N 29°42' W 089°59'1310.1
2020-Jan-23 22:00N 29°55' W 089°55'8 1.4
2020-Jan-23 16:26N 29°56' W 090°04'0 0.0
2020-Jan-23 15:26N 29°56' W 090°04'0 0.0
2020-Jan-23 13:52N 29°56' W 090°04'0 0.0
2020-Jan-23 12:30N 29°56' W 090°04'0 0.0
2020-Jan-23 11:00N 29°56' W 090°04'8 7.7
2020-Jan-23 10:00N 29°55' W 089°55'50414.8
2020-Jan-22 00:01N 21°31' W 089°41'10 2.8
2020-Jan-21 20:29N 21°21' W 089°41'22 3.0
2020-Jan-21 13:01N 21°41' W 089°31'15912.8
2020-Jan-21 00:38N 20°44' W 086°52'17 4.6
2020-Jan-20 20:59N 20°29' W 086°59'0 0.0
2020-Jan-20 18:28N 20°29' W 086°59'0 0.0
2020-Jan-20 17:00N 20°29' W 086°59'0 0.0
2020-Jan-20 14:59N 20°29' W 086°59'0 0.0
2020-Jan-20 13:30N 20°29' W 086°59'11 7.4
2020-Jan-20 12:00N 20°39' W 086°55'10 9.6
2020-Jan-20 11:00N 20°47' W 086°50'11512.7
2020-Jan-20 02:00N 22°42' W 086°54'2121.1 1019.0
2020-Jan-20 01:00N 23°00' W 087°06'3818.8 010 / 151018.7 25.022.026.0
2020-Jan-19 23:00N 23°36' W 087°18'18418.4 010 / 291018.2 26.019.926.0
2020-Jan-19 13:00N 26°30' W 088°24'20116.0 360 / 101019.910.8 22.015.329.0
2020-Jan-19 00:25N 29°36' W 089°50'22 8.9
2020-Jan-18 22:00N 29°56' W 089°59'4 6.9
2020-Jan-18 21:25N 29°56' W 090°04'0 0.0
2020-Jan-18 20:25N 29°56' W 090°04'0 0.0
2020-Jan-18 19:30N 29°56' W 090°04'0 0.0
2020-Jan-18 17:57N 29°56' W 090°04'0 0.0
2020-Jan-18 17:29N 29°56' W 090°04'0 0.0
2020-Jan-18 16:26N 29°56' W 090°04'0 0.0
2020-Jan-18 15:28N 29°56' W 090°04'0 0.0
2020-Jan-18 14:58N 29°56' W 090°04'0 0.0
2020-Jan-18 13:28N 29°56' W 090°04'  

Dump ship's entire track history